createdAt,value
2018-08-13T05:00:06.131Z,3.17
2018-08-13T05:00:39.163Z,2.53
2018-08-13T05:01:12.307Z,4.93
2018-08-13T05:01:45.342Z,2.97
2018-08-13T05:02:18.376Z,2.80
2018-08-13T05:02:51.399Z,2.80
2018-08-13T05:03:24.443Z,2.53
2018-08-13T05:03:57.475Z,3.80
2018-08-13T05:04:30.522Z,2.83
2018-08-13T05:05:03.578Z,2.15
2018-08-13T05:05:36.618Z,3.12
2018-08-13T05:06:09.630Z,2.25
2018-08-13T05:06:42.659Z,4.18
2018-08-13T05:07:15.726Z,3.15
2018-08-13T05:07:48.750Z,3.05
2018-08-13T05:08:22.572Z,3.40
2018-08-13T05:08:55.623Z,3.87
2018-08-13T05:09:28.685Z,2.37
2018-08-13T05:10:01.741Z,1.98
2018-08-13T05:10:34.767Z,2.97
2018-08-13T05:11:08.564Z,1.70
2018-08-13T05:11:41.608Z,2.40
2018-08-13T05:12:14.623Z,3.05
2018-08-13T05:12:47.660Z,2.62
2018-08-13T05:13:20.704Z,2.50
2018-08-13T05:13:54.533Z,8.02
2018-08-13T05:14:27.575Z,4.15
2018-08-13T05:15:00.644Z,4.00
2018-08-13T05:15:34.443Z,2.37
2018-08-13T05:16:08.243Z,3.20
2018-08-13T05:16:41.272Z,1.83
2018-08-13T05:17:14.423Z,2.90
2018-08-13T05:17:47.455Z,2.58
2018-08-13T05:18:20.520Z,3.20
2018-08-13T05:18:53.556Z,3.22
2018-08-13T05:19:26.617Z,1.75
2018-08-13T05:19:59.654Z,2.75
2018-08-13T05:20:33.449Z,2.17
2018-08-13T05:21:06.537Z,2.10
2018-08-13T05:21:39.522Z,3.97
2018-08-13T05:22:12.561Z,1.70
2018-08-13T05:22:46.364Z,3.62
2018-08-13T05:23:20.416Z,2.10
2018-08-13T05:23:53.465Z,1.83
2018-08-13T05:24:26.508Z,6.07
2018-08-13T05:25:00.339Z,4.78
2018-08-13T05:25:33.363Z,2.62
2018-08-13T05:26:06.403Z,1.92
2018-08-13T05:26:39.441Z,1.95
2018-08-13T05:27:12.463Z,2.28
2018-08-13T05:27:45.496Z,2.72
2018-08-13T05:28:18.577Z,4.40
2018-08-13T05:28:51.615Z,2.47
2018-08-13T05:29:25.429Z,2.12
2018-08-13T05:29:58.821Z,3.33
2018-08-13T05:30:31.913Z,2.67
2018-08-13T05:31:04.955Z,3.35
2018-08-13T05:31:38.000Z,3.80
2018-08-13T05:32:11.047Z,3.33
2018-08-13T05:32:44.087Z,2.65
2018-08-13T05:33:17.116Z,2.47
2018-08-13T05:33:50.176Z,2.33
2018-08-13T05:34:23.211Z,2.00
2018-08-13T05:34:56.260Z,3.00
2018-08-13T05:35:29.305Z,2.30
2018-08-13T05:36:02.475Z,3.28
2018-08-13T05:36:35.505Z,3.75
2018-08-13T05:37:08.547Z,2.08
2018-08-13T05:37:41.590Z,2.15
2018-08-13T05:38:14.671Z,2.03
2018-08-13T05:38:48.455Z,3.25
2018-08-13T05:39:21.483Z,2.58
2018-08-13T05:39:55.289Z,3.03
2018-08-13T05:40:29.088Z,3.12
2018-08-13T05:41:02.126Z,2.55
2018-08-13T05:41:35.155Z,1.90
2018-08-13T05:42:08.204Z,2.87
2018-08-13T05:42:41.231Z,2.30
2018-08-13T05:43:14.389Z,3.92
2018-08-13T05:43:47.426Z,3.03
2018-08-13T05:44:20.482Z,3.55
2018-08-13T05:44:53.576Z,3.95
2018-08-13T05:45:26.591Z,3.53
2018-08-13T05:45:59.628Z,3.08
2018-08-13T05:46:33.423Z,3.12
2018-08-13T05:47:07.219Z,1.73
2018-08-13T05:47:40.269Z,4.03
2018-08-13T05:48:13.304Z,2.47
2018-08-13T05:48:46.339Z,5.10
2018-08-13T05:49:20.163Z,3.33
2018-08-13T05:49:53.229Z,3.05
2018-08-13T05:50:26.309Z,4.18
2018-08-13T05:50:59.340Z,2.90
2018-08-13T05:51:32.387Z,4.22
2018-08-13T05:52:05.432Z,4.10
2018-08-13T05:52:38.457Z,2.28
2018-08-13T05:53:11.516Z,2.58
2018-08-13T05:53:44.552Z,5.53
2018-08-13T05:54:17.615Z,3.60
2018-08-13T05:54:50.646Z,4.35
2018-08-13T05:55:23.690Z,2.08
2018-08-13T05:55:56.715Z,2.80
2018-08-13T05:56:29.743Z,4.70
2018-08-13T05:57:03.563Z,3.12
2018-08-13T05:57:36.604Z,2.50
2018-08-13T05:58:09.630Z,3.50
2018-08-13T05:58:43.435Z,2.95
2018-08-13T05:59:16.485Z,2.28
2018-08-13T05:59:49.530Z,4.97
2018-08-13T06:00:22.567Z,5.32
2018-08-13T06:00:55.633Z,4.37
2018-08-13T06:01:29.437Z,3.55
2018-08-13T06:02:03.246Z,2.75
2018-08-13T06:02:36.275Z,1.92
2018-08-13T06:03:09.387Z,5.22
2018-08-13T06:03:42.347Z,4.68
2018-08-13T06:04:15.409Z,3.15
2018-08-13T06:04:49.323Z,3.55
2018-08-13T06:05:23.208Z,2.50
2018-08-13T06:05:56.302Z,3.78
2018-08-13T06:06:29.330Z,2.83
2018-08-13T06:07:02.364Z,4.22
2018-08-13T06:07:35.407Z,5.07
2018-08-13T06:08:09.225Z,5.40
2018-08-13T06:08:42.276Z,2.60
2018-08-13T06:09:15.305Z,5.43
2018-08-13T06:09:49.111Z,3.87
2018-08-13T06:10:22.141Z,4.85
2018-08-13T06:10:55.183Z,7.32
2018-08-13T06:11:28.981Z,3.40
2018-08-13T06:12:02.060Z,3.40
2018-08-13T06:12:35.852Z,8.65
2018-08-13T06:13:09.655Z,7.78
2018-08-13T06:13:42.704Z,8.65
2018-08-13T06:14:16.503Z,6.03
2018-08-13T06:14:49.531Z,7.80
2018-08-13T06:15:22.576Z,5.32
2018-08-13T06:15:55.614Z,7.80
2018-08-13T06:16:28.644Z,8.90
2018-08-13T06:17:01.666Z,7.93
2018-08-13T06:17:35.461Z,6.75
2018-08-13T06:18:08.538Z,11.50
2018-08-13T06:18:41.532Z,8.45
2018-08-13T06:19:14.581Z,8.43
2018-08-13T06:19:47.597Z,8.75
2018-08-13T06:20:20.638Z,10.73
2018-08-13T06:20:53.693Z,8.55
2018-08-13T06:21:26.743Z,7.32
2018-08-13T06:21:59.775Z,10.82
2018-08-13T06:22:32.817Z,10.13
2018-08-13T06:23:05.861Z,11.45
2018-08-13T06:23:39.040Z,8.73
2018-08-13T06:24:12.083Z,8.77
2018-08-13T06:24:45.172Z,9.00
2018-08-13T06:25:18.207Z,7.80
2018-08-13T06:25:51.248Z,7.43
2018-08-13T06:26:25.352Z,5.87
2018-08-13T06:26:58.356Z,6.43
2018-08-13T06:27:31.381Z,7.43
2018-08-13T06:28:04.435Z,8.70
2018-08-13T06:28:37.484Z,7.07
2018-08-13T06:29:10.540Z,6.75
2018-08-13T06:29:43.568Z,8.48
2018-08-13T06:30:16.768Z,6.25
2018-08-13T06:30:49.788Z,7.62
2018-08-13T06:31:22.828Z,6.53
2018-08-13T06:31:55.895Z,7.43
2018-08-13T06:32:28.937Z,6.55
2018-08-13T06:33:01.968Z,6.12
2018-08-13T06:33:35.006Z,9.45
2018-08-13T06:34:08.088Z,9.00
2018-08-13T06:34:41.114Z,4.25
2018-08-13T06:35:14.134Z,6.40
2018-08-13T06:35:47.313Z,5.53
2018-08-13T06:36:20.507Z,5.03
2018-08-13T06:36:53.552Z,5.50
2018-08-13T06:37:26.605Z,5.87
2018-08-13T06:38:00.403Z,9.00
2018-08-13T06:38:33.431Z,6.65
2018-08-13T06:39:06.595Z,5.30
2018-08-13T06:39:39.631Z,7.15
2018-08-13T06:40:12.679Z,8.50
2018-08-13T06:40:45.708Z,7.03
2018-08-13T06:41:18.740Z,4.32
2018-08-13T06:41:51.767Z,7.95
2018-08-13T06:42:24.812Z,5.85
2018-08-13T06:42:58.612Z,5.37
2018-08-13T06:43:31.655Z,7.15
2018-08-13T06:44:04.691Z,4.55
2018-08-13T06:44:38.488Z,6.65
2018-08-13T06:45:11.536Z,6.47
2018-08-13T06:45:44.568Z,8.48
2018-08-13T06:46:17.607Z,4.43
2018-08-13T06:46:50.649Z,5.78
2018-08-13T06:47:23.676Z,5.05
2018-08-13T06:47:56.715Z,8.20
2018-08-13T06:48:29.764Z,4.82
2018-08-13T06:49:02.818Z,5.68
2018-08-13T06:49:35.839Z,3.87
2018-08-13T06:50:08.867Z,4.82
2018-08-13T06:50:42.665Z,7.00
2018-08-13T06:51:16.481Z,4.82
2018-08-13T06:51:49.524Z,6.18
2018-08-13T06:52:22.559Z,6.78
2018-08-13T06:52:55.591Z,4.70
2018-08-13T06:53:28.620Z,5.03
2018-08-13T06:54:01.687Z,6.37
2018-08-13T06:54:34.737Z,5.25
2018-08-13T06:55:07.768Z,5.28
2018-08-13T06:55:40.994Z,6.50
2018-08-13T06:56:14.039Z,6.82
2018-08-13T06:56:47.838Z,4.87
2018-08-13T06:57:21.064Z,5.87
2018-08-13T06:57:54.104Z,5.35
2018-08-13T06:58:27.143Z,6.75
2018-08-13T06:59:00.959Z,7.62
2018-08-13T06:59:33.982Z,6.15
2018-08-13T07:00:07.006Z,5.18
2018-08-13T07:00:40.125Z,6.12
2018-08-13T07:01:13.900Z,6.15
2018-08-13T07:01:46.928Z,6.47
2018-08-13T07:02:20.721Z,7.15
2018-08-13T07:02:53.763Z,6.85
2018-08-13T07:03:26.803Z,4.55
2018-08-13T07:03:59.851Z,4.75
2018-08-13T07:04:33.640Z,7.78
2018-08-13T07:05:07.455Z,7.45
2018-08-13T07:05:40.488Z,4.47
2018-08-13T07:06:13.583Z,4.87
2018-08-13T07:06:46.567Z,4.85
2018-08-13T07:07:19.595Z,4.43
2018-08-13T07:07:53.125Z,4.90
2018-08-13T07:08:26.121Z,6.68
2018-08-13T07:08:59.152Z,4.00
2018-08-13T07:09:32.612Z,8.68
2018-08-13T07:10:05.669Z,5.47
2018-08-13T07:10:38.734Z,6.53
2018-08-13T07:11:11.908Z,5.43
2018-08-13T07:11:45.097Z,5.20
2018-08-13T07:12:18.134Z,6.62
2018-08-13T07:12:51.172Z,4.85
2018-08-13T07:13:24.195Z,5.82
2018-08-13T07:13:57.215Z,6.10
2018-08-13T07:14:30.260Z,5.05
2018-08-13T07:15:03.315Z,4.68
2018-08-13T07:15:36.416Z,6.68
2018-08-13T07:16:09.395Z,5.32
2018-08-13T07:16:42.420Z,4.12
2018-08-13T07:17:16.248Z,6.53
2018-08-13T07:17:49.465Z,5.93
2018-08-13T07:18:23.271Z,5.90
2018-08-13T07:18:56.415Z,4.90
2018-08-13T07:19:29.473Z,4.97
2018-08-13T07:20:03.276Z,4.25
2018-08-13T07:20:36.296Z,6.05
2018-08-13T07:21:09.340Z,4.22
2018-08-13T07:21:42.368Z,4.40
2018-08-13T07:22:15.515Z,3.85
2018-08-13T07:22:48.457Z,3.92
2018-08-13T07:23:21.484Z,4.78
2018-08-13T07:23:54.552Z,4.70
2018-08-13T07:24:27.600Z,6.00
2018-08-13T07:25:00.660Z,5.18
2018-08-13T07:25:33.687Z,4.45
2018-08-13T07:26:07.507Z,6.40
2018-08-13T07:26:40.549Z,6.10
2018-08-13T07:27:14.359Z,3.58
2018-08-13T07:27:47.448Z,5.57
2018-08-13T07:28:20.454Z,5.55
2018-08-13T07:28:53.580Z,4.45
2018-08-13T07:29:26.595Z,5.28
2018-08-13T07:29:59.624Z,4.93
2018-08-13T07:30:33.471Z,6.18
2018-08-13T07:31:06.515Z,5.12
2018-08-13T07:31:39.539Z,5.70
2018-08-13T07:32:12.600Z,5.10
2018-08-13T07:32:45.640Z,4.57
2018-08-13T07:33:18.822Z,6.97
2018-08-13T07:33:51.976Z,5.90
2018-08-13T07:34:25.015Z,6.53
2018-08-13T07:34:58.044Z,4.95
2018-08-13T07:35:31.088Z,4.97
2018-08-13T07:36:04.875Z,4.55
2018-08-13T07:36:38.671Z,9.15
2018-08-13T07:37:12.498Z,5.45
2018-08-13T07:37:45.537Z,5.55
2018-08-13T07:38:18.578Z,5.25
2018-08-13T07:38:51.681Z,5.50
2018-08-13T07:39:24.735Z,7.87
2018-08-13T07:39:58.485Z,5.95
2018-08-13T07:40:31.527Z,6.37
2018-08-13T07:41:05.326Z,5.95
2018-08-13T07:41:39.125Z,6.05
2018-08-13T07:42:12.924Z,7.20
2018-08-13T07:42:45.975Z,4.75
2018-08-13T07:43:19.111Z,5.78
2018-08-13T07:43:52.131Z,6.05
2018-08-13T07:44:25.175Z,4.35
2018-08-13T07:44:58.990Z,6.37
2018-08-13T07:45:32.027Z,5.12
2018-08-13T07:46:05.054Z,4.22
2018-08-13T07:46:38.211Z,4.12
2018-08-13T07:47:11.163Z,5.18
2018-08-13T07:47:44.187Z,4.28
2018-08-13T07:48:17.227Z,5.12
2018-08-13T07:48:50.271Z,6.10
2018-08-13T07:49:24.727Z,6.20
2018-08-13T07:49:57.735Z,4.55
2018-08-13T07:50:30.767Z,4.72
2018-08-13T07:51:03.815Z,4.85
2018-08-13T07:51:36.867Z,4.18
2018-08-13T07:52:09.869Z,5.07
2018-08-13T07:52:42.923Z,3.97
2018-08-13T07:53:15.964Z,4.65
2018-08-13T07:53:49.057Z,4.25
2018-08-13T07:54:22.099Z,5.40
2018-08-13T07:54:55.943Z,3.80
2018-08-13T07:55:28.991Z,5.55
2018-08-13T07:56:02.025Z,5.80
2018-08-13T07:56:35.067Z,4.28
2018-08-13T07:57:08.140Z,4.18
2018-08-13T07:57:41.170Z,3.95
2018-08-13T07:58:14.229Z,6.43
2018-08-13T07:58:47.274Z,5.00
2018-08-13T07:59:20.304Z,5.57
2018-08-13T07:59:53.418Z,7.45
2018-08-13T08:00:26.387Z,5.55
2018-08-13T08:00:59.422Z,3.50
2018-08-13T08:01:32.476Z,5.68
2018-08-13T08:02:05.509Z,5.12
2018-08-13T08:02:38.548Z,6.57
2018-08-13T08:03:12.364Z,4.03
2018-08-13T08:03:45.396Z,5.57
2018-08-13T08:04:18.428Z,4.12
2018-08-13T08:04:51.475Z,6.20
2018-08-13T08:05:24.533Z,5.37
2018-08-13T08:05:58.340Z,7.45
2018-08-13T08:06:31.382Z,6.12
2018-08-13T08:07:04.436Z,5.10
2018-08-13T08:07:37.460Z,5.55
2018-08-13T08:08:11.253Z,8.25
2018-08-13T08:08:44.296Z,7.68
2018-08-13T08:09:17.420Z,7.15
2018-08-13T08:09:51.189Z,6.25
2018-08-13T08:10:24.230Z,4.68
2018-08-13T08:10:57.264Z,6.95
2018-08-13T08:11:30.312Z,4.80
2018-08-13T08:12:04.116Z,4.55
2018-08-13T08:12:37.142Z,5.37
2018-08-13T08:13:10.183Z,5.07
2018-08-13T08:13:43.222Z,7.10
2018-08-13T08:14:17.015Z,8.25
2018-08-13T08:14:51.288Z,6.00
2018-08-13T08:15:24.356Z,4.32
2018-08-13T08:15:57.400Z,4.65
2018-08-13T08:16:30.436Z,4.70
2018-08-13T08:17:03.751Z,6.00
2018-08-13T08:17:36.964Z,4.78
2018-08-13T08:18:10.127Z,4.32
2018-08-13T08:18:43.184Z,6.18
2018-08-13T08:19:16.237Z,5.12
2018-08-13T08:19:50.043Z,4.53
2018-08-13T08:20:23.089Z,6.53
2018-08-13T08:20:56.138Z,5.53
2018-08-13T08:21:29.256Z,6.82
2018-08-13T08:22:02.204Z,7.05
2018-08-13T08:22:35.250Z,5.72
2018-08-13T08:23:08.295Z,6.28
2018-08-13T08:23:41.369Z,5.10
2018-08-13T08:24:14.384Z,4.28
2018-08-13T08:24:47.428Z,5.25
2018-08-13T08:25:20.484Z,6.85
2018-08-13T08:25:53.536Z,5.82
2018-08-13T08:26:26.588Z,4.62
2018-08-13T08:26:59.640Z,8.05
2018-08-13T08:27:32.663Z,6.70
2018-08-13T08:28:06.462Z,5.18
2018-08-13T08:28:40.282Z,5.43
2018-08-13T08:29:13.363Z,4.50
2018-08-13T08:29:46.354Z,7.65
2018-08-13T08:30:19.414Z,9.45
2018-08-13T08:30:52.536Z,5.68
2018-08-13T08:31:25.791Z,7.30
2018-08-13T08:31:58.814Z,6.82
2018-08-13T08:32:31.836Z,5.97
2018-08-13T08:33:04.897Z,6.95
2018-08-13T08:33:38.076Z,6.65
2018-08-13T08:34:11.148Z,8.13
2018-08-13T08:34:44.185Z,6.70
2018-08-13T08:35:17.229Z,7.10
2018-08-13T08:35:50.295Z,7.65
2018-08-13T08:36:23.336Z,6.00
2018-08-13T08:36:56.561Z,9.25
2018-08-13T08:37:29.584Z,7.97
2018-08-13T08:38:02.616Z,6.95
2018-08-13T08:38:35.653Z,7.12
2018-08-13T08:39:08.695Z,6.80
2018-08-13T08:39:41.751Z,6.85
2018-08-13T08:40:14.804Z,6.93
2018-08-13T08:40:47.867Z,8.55
2018-08-13T08:41:20.889Z,12.20
2018-08-13T08:41:54.688Z,9.48
2018-08-13T08:42:28.487Z,8.45
2018-08-13T08:43:01.527Z,8.10
2018-08-13T08:43:34.568Z,10.23
2018-08-13T08:44:07.601Z,10.15
2018-08-13T08:44:41.434Z,7.28
2018-08-13T08:45:14.480Z,9.52
2018-08-13T08:45:47.555Z,9.30
2018-08-13T08:46:20.564Z,8.10
2018-08-13T08:46:53.592Z,7.43
2018-08-13T08:47:26.636Z,8.50
2018-08-13T08:47:59.677Z,9.70
2018-08-13T08:48:33.471Z,6.68
2018-08-13T08:49:06.514Z,7.82
2018-08-13T08:49:39.559Z,8.15
2018-08-13T08:50:12.625Z,8.07
2018-08-13T08:50:45.650Z,6.57
2018-08-13T08:51:18.672Z,7.57
2018-08-13T08:51:51.726Z,7.90
2018-08-13T08:52:24.765Z,7.93
2018-08-13T08:52:58.559Z,11.45
2018-08-13T08:53:31.660Z,8.35
2018-08-13T08:54:04.696Z,9.45
2018-08-13T08:54:37.813Z,9.00
2018-08-13T08:55:10.879Z,7.00
2018-08-13T08:55:43.907Z,9.02
2018-08-13T08:56:16.988Z,8.52
2018-08-13T08:56:50.116Z,7.62
2018-08-13T08:57:23.155Z,7.32
2018-08-13T08:57:56.212Z,9.82
2018-08-13T08:58:29.251Z,7.45
2018-08-13T08:59:02.306Z,10.82
2018-08-13T08:59:35.400Z,8.90
2018-08-13T09:00:09.224Z,9.13
2018-08-13T09:00:42.335Z,12.70
2018-08-13T09:01:15.335Z,8.27
2018-08-13T09:01:48.396Z,6.90
2018-08-13T09:02:21.410Z,8.73
2018-08-13T09:02:54.461Z,7.05
2018-08-13T09:03:27.500Z,9.93
2018-08-13T09:04:00.551Z,8.93
2018-08-13T09:04:33.593Z,8.93
2018-08-13T09:05:06.636Z,8.73
2018-08-13T09:05:39.670Z,10.57
2018-08-13T09:06:12.719Z,6.32
2018-08-13T09:06:45.760Z,7.75
2018-08-13T09:07:19.593Z,6.82
2018-08-13T09:07:52.635Z,8.65
2018-08-13T09:08:25.706Z,6.82
2018-08-13T09:08:58.809Z,5.82
2018-08-13T09:09:31.839Z,6.32
2018-08-13T09:10:04.969Z,8.60
2018-08-13T09:10:38.018Z,9.18
2018-08-13T09:11:11.035Z,6.60
2018-08-13T09:11:44.097Z,7.57
2018-08-13T09:12:18.299Z,7.97
2018-08-13T09:12:51.302Z,8.55
2018-08-13T09:13:24.343Z,11.12
2018-08-13T09:13:57.391Z,8.25
2018-08-13T09:14:30.444Z,7.70
2018-08-13T09:15:03.484Z,7.40
2018-08-13T09:15:36.552Z,6.82
2018-08-13T09:16:09.596Z,6.68
2018-08-13T09:16:42.641Z,8.27
2018-08-13T09:17:16.444Z,11.05
2018-08-13T09:18:15.843Z,9.25
2018-08-13T09:19:14.619Z,7.55
2018-08-13T09:20:13.100Z,7.55
2018-08-13T09:21:07.652Z,8.07
2018-08-13T09:21:41.467Z,6.78
2018-08-13T09:22:14.520Z,6.07
2018-08-13T09:22:59.417Z,7.28
2018-08-13T09:23:45.016Z,7.75
2018-08-13T09:24:29.944Z,5.68
2018-08-13T09:25:28.583Z,9.55
2018-08-13T09:26:13.518Z,7.50
2018-08-13T09:26:58.631Z,9.40
2018-08-13T09:27:43.543Z,9.05
2018-08-13T09:28:28.492Z,5.45
2018-08-13T09:29:28.200Z,8.55
2018-08-13T09:30:13.059Z,8.25
2018-08-13T09:32:29.307Z,7.90
2018-08-13T09:33:14.204Z,10.05
2018-08-13T09:33:59.131Z,8.48
2018-08-13T09:34:32.936Z,5.90
2018-08-13T09:35:06.755Z,7.80
2018-08-13T09:35:39.813Z,6.82
2018-08-13T09:36:12.853Z,6.00
2018-08-13T09:36:45.992Z,9.25
2018-08-13T09:37:19.068Z,6.62
2018-08-13T09:37:52.123Z,5.30
2018-08-13T09:38:25.153Z,5.55
2018-08-13T09:38:58.193Z,6.15
2018-08-13T09:39:32.138Z,6.22
2018-08-13T09:40:05.167Z,8.02
2018-08-13T09:40:38.199Z,7.82
2018-08-13T09:41:11.250Z,7.20
2018-08-13T09:41:44.289Z,8.00
2018-08-13T09:42:17.312Z,8.75
2018-08-13T09:42:50.371Z,5.90
2018-08-13T09:43:23.412Z,6.43
2018-08-13T09:43:56.582Z,6.85
2018-08-13T09:44:29.603Z,9.07
2018-08-13T09:45:03.399Z,7.32
2018-08-13T09:45:36.753Z,6.35
2018-08-13T09:46:09.792Z,6.60
2018-08-13T09:46:42.856Z,6.53
2018-08-13T09:47:16.657Z,8.35
2018-08-13T09:47:49.692Z,7.10
2018-08-13T09:48:22.724Z,5.28
2018-08-13T09:48:55.792Z,5.55
2018-08-13T09:49:28.832Z,5.82
2018-08-13T09:50:01.868Z,5.93
2018-08-13T09:50:34.912Z,6.87
2018-08-13T09:51:08.115Z,11.88
2018-08-13T09:51:41.151Z,8.93
2018-08-13T09:52:14.198Z,8.23
2018-08-13T09:52:47.242Z,7.50
2018-08-13T09:53:20.265Z,7.95
2018-08-13T09:53:54.570Z,6.32
2018-08-13T09:54:27.616Z,7.15
2018-08-13T09:55:00.651Z,8.98
2018-08-13T09:55:33.697Z,6.45
2018-08-13T09:56:06.730Z,6.85
2018-08-13T09:56:39.764Z,8.88
2018-08-13T09:57:12.810Z,6.95
2018-08-13T09:57:46.618Z,6.15
2018-08-13T09:58:19.679Z,7.37
2018-08-13T09:58:53.468Z,6.80
2018-08-13T09:59:26.508Z,5.62
2018-08-13T09:59:59.535Z,6.93
2018-08-13T10:00:32.591Z,8.48
2018-08-13T10:01:05.703Z,6.45
2018-08-13T10:01:38.876Z,7.30
2018-08-13T10:02:11.928Z,6.95
2018-08-13T10:02:45.716Z,7.50
2018-08-13T10:03:18.748Z,6.43
2018-08-13T10:03:51.798Z,6.28
2018-08-13T10:04:24.825Z,6.35
2018-08-13T10:04:57.863Z,7.70
2018-08-13T10:05:30.926Z,7.62
2018-08-13T10:06:03.967Z,7.07
2018-08-13T10:06:37.776Z,5.75
2018-08-13T10:07:10.876Z,6.75
2018-08-13T10:07:43.914Z,6.35
2018-08-13T10:08:16.961Z,7.68
2018-08-13T10:08:50.020Z,6.20
2018-08-13T10:09:23.128Z,6.62
2018-08-13T10:09:56.841Z,7.22
2018-08-13T10:10:29.890Z,5.95
2018-08-13T10:11:03.718Z,6.10
2018-08-13T10:11:36.751Z,6.93
2018-08-13T10:12:09.805Z,5.90
2018-08-13T10:12:42.848Z,7.78
2018-08-13T10:13:15.886Z,6.20
2018-08-13T10:13:49.696Z,7.75
2018-08-13T10:14:23.243Z,6.53
2018-08-13T10:14:56.272Z,5.93
2018-08-13T10:15:29.316Z,7.10
2018-08-13T10:16:03.137Z,9.77
2018-08-13T10:16:36.195Z,7.15
2018-08-13T10:17:09.239Z,6.72
2018-08-13T10:17:42.321Z,7.55
2018-08-13T10:18:15.339Z,6.75
2018-08-13T10:18:48.364Z,6.75
2018-08-13T10:19:21.415Z,6.93
2018-08-13T10:19:54.447Z,7.72
2018-08-13T10:20:27.480Z,7.28
2018-08-13T10:21:00.528Z,8.15
2018-08-13T10:21:33.565Z,7.05
2018-08-13T10:22:06.624Z,8.32
2018-08-13T10:22:39.631Z,7.80
2018-08-13T10:23:12.682Z,9.60
2018-08-13T10:23:45.744Z,8.95
2018-08-13T10:24:18.768Z,7.57
2018-08-13T10:24:51.803Z,7.18
2018-08-13T10:25:24.836Z,7.62
2018-08-13T10:25:58.655Z,7.72
2018-08-13T10:26:31.671Z,8.18
2018-08-13T10:27:04.697Z,9.63
2018-08-13T10:27:37.744Z,8.27
2018-08-13T10:28:10.790Z,7.50
2018-08-13T10:28:43.845Z,8.60
2018-08-13T10:29:16.867Z,8.18
2018-08-13T10:29:49.988Z,7.32
2018-08-13T10:30:22.960Z,8.60
2018-08-13T10:30:56.809Z,9.70
2018-08-13T10:31:29.897Z,8.45
2018-08-13T10:32:02.921Z,7.15
2018-08-13T10:32:36.764Z,7.60
2018-08-13T10:33:09.824Z,7.87
2018-08-13T10:33:42.875Z,8.40
2018-08-13T10:34:15.903Z,7.30
2018-08-13T10:34:48.945Z,10.73
2018-08-13T10:35:21.976Z,7.95
2018-08-13T10:35:55.824Z,8.63
2018-08-13T10:36:28.882Z,8.90
2018-08-13T10:37:01.924Z,8.35
2018-08-13T10:37:35.753Z,7.70
2018-08-13T10:38:08.788Z,9.23
2018-08-13T10:38:42.581Z,6.28
2018-08-13T10:39:16.407Z,6.90
2018-08-13T10:39:49.414Z,8.75
2018-08-13T10:40:22.453Z,7.47
2018-08-13T10:40:55.499Z,7.37
2018-08-13T10:41:29.300Z,6.62
2018-08-13T10:42:02.363Z,7.55
2018-08-13T10:42:35.391Z,6.85
2018-08-13T10:43:08.455Z,7.07
2018-08-13T10:43:41.566Z,6.85
2018-08-13T10:44:14.545Z,8.52
2018-08-13T10:44:47.620Z,9.88
2018-08-13T10:45:20.615Z,8.75
2018-08-13T10:45:53.675Z,11.10
2018-08-13T10:46:27.495Z,7.70
2018-08-13T10:47:00.550Z,8.30
2018-08-13T10:47:34.360Z,9.85
2018-08-13T10:48:07.422Z,10.07
2018-08-13T10:48:40.440Z,10.48
2018-08-13T10:49:13.515Z,9.00
2018-08-13T10:49:46.565Z,6.65
2018-08-13T10:50:19.591Z,8.32
2018-08-13T10:50:52.747Z,8.48
2018-08-13T10:51:25.795Z,8.50
2018-08-13T10:51:58.822Z,8.75
2018-08-13T10:52:31.866Z,7.10
2018-08-13T10:53:04.916Z,7.22
2018-08-13T10:53:37.960Z,7.93
2018-08-13T10:54:11.017Z,10.82
2018-08-13T10:54:44.057Z,6.95
2018-08-13T10:55:17.089Z,8.20
2018-08-13T10:55:50.983Z,12.45
2018-08-13T10:56:24.026Z,8.15
2018-08-13T10:56:57.819Z,7.50
2018-08-13T10:57:30.913Z,8.13
2018-08-13T10:58:03.943Z,7.82
2018-08-13T10:58:37.044Z,7.75
2018-08-13T10:59:10.071Z,7.00
2018-08-13T10:59:43.103Z,8.77
2018-08-13T11:00:16.158Z,7.10
2018-08-13T11:00:49.189Z,8.05
2018-08-13T11:01:22.302Z,6.78
2018-08-13T11:01:55.313Z,7.72
2018-08-13T11:02:28.336Z,6.35
2018-08-13T11:03:01.484Z,7.32
2018-08-13T11:03:34.427Z,6.78
2018-08-13T11:04:07.486Z,7.45
2018-08-13T11:04:40.543Z,9.18
2018-08-13T11:05:13.611Z,6.72
2018-08-13T11:05:46.640Z,8.18
2018-08-13T11:06:19.673Z,6.78
2018-08-13T11:06:52.868Z,9.15
2018-08-13T11:07:25.924Z,7.25
2018-08-13T11:07:58.961Z,8.70
2018-08-13T11:08:32.777Z,7.40
2018-08-13T11:09:05.808Z,10.90
2018-08-13T11:09:38.847Z,9.27
2018-08-13T11:10:11.937Z,6.97
2018-08-13T11:10:44.925Z,7.10
2018-08-13T11:11:17.963Z,7.95
2018-08-13T11:11:51.044Z,8.27
2018-08-13T11:12:24.119Z,8.63
2018-08-13T11:12:57.152Z,8.23
2018-08-13T11:13:31.015Z,6.87
2018-08-13T11:14:04.027Z,8.80
2018-08-13T11:14:37.091Z,9.50
2018-08-13T11:15:10.917Z,6.72
2018-08-13T11:15:43.950Z,8.77
2018-08-13T11:16:17.635Z,9.75
2018-08-13T11:16:51.461Z,7.10
2018-08-13T11:17:24.498Z,7.05
2018-08-13T11:17:57.527Z,9.95
2018-08-13T11:18:30.568Z,8.80
2018-08-13T11:19:04.367Z,8.25
2018-08-13T11:19:38.170Z,7.10
2018-08-13T11:20:11.204Z,7.40
2018-08-13T11:20:44.255Z,8.05
2018-08-13T11:21:17.300Z,10.65
2018-08-13T11:21:50.579Z,6.93
2018-08-13T11:22:23.512Z,6.85
2018-08-13T11:22:56.561Z,8.55
2018-08-13T11:23:30.376Z,9.65
2018-08-13T11:24:03.410Z,7.97
2018-08-13T11:24:36.481Z,7.78
2018-08-13T11:25:09.507Z,7.82
2018-08-13T11:25:43.303Z,8.07
2018-08-13T11:26:17.143Z,9.50
2018-08-13T11:26:50.193Z,7.62
2018-08-13T11:27:23.238Z,9.63
2018-08-13T11:27:56.265Z,9.93
2018-08-13T11:28:29.359Z,8.82
2018-08-13T11:29:02.355Z,10.93
2018-08-13T11:29:35.412Z,10.68
2018-08-13T11:30:08.571Z,8.95
2018-08-13T11:30:41.772Z,11.88
2018-08-13T11:31:14.877Z,8.07
2018-08-13T11:31:47.871Z,7.85
2018-08-13T11:32:20.927Z,11.60
2018-08-13T11:32:53.963Z,8.13
2018-08-13T11:33:27.010Z,7.68
2018-08-13T11:34:00.037Z,9.15
2018-08-13T11:34:33.090Z,8.60
2018-08-13T11:35:06.125Z,10.90
2018-08-13T11:35:39.153Z,8.48
2018-08-13T11:36:12.208Z,9.07
2018-08-13T11:36:45.268Z,10.07
2018-08-13T11:37:19.722Z,10.15
2018-08-13T11:37:52.758Z,10.38
2018-08-13T11:38:25.787Z,8.43
2018-08-13T11:38:59.612Z,9.60
2018-08-13T11:39:32.650Z,7.37
2018-08-13T11:40:06.455Z,7.40
2018-08-13T11:40:39.516Z,10.15
2018-08-13T11:41:12.549Z,7.28
2018-08-13T11:41:45.908Z,11.35
2018-08-13T11:42:18.943Z,8.48
2018-08-13T11:42:52.267Z,11.15
2018-08-13T11:43:25.331Z,8.20
2018-08-13T11:43:58.428Z,12.20
2018-08-13T11:44:31.456Z,8.70
2018-08-13T11:45:04.491Z,7.78
2018-08-13T11:45:37.525Z,9.27
2018-08-13T11:46:10.551Z,8.48
2018-08-13T11:46:43.587Z,10.77
2018-08-13T11:47:16.639Z,9.27
2018-08-13T11:47:50.475Z,8.80
2018-08-13T11:48:23.746Z,9.68
2018-08-13T11:48:57.508Z,11.38
2018-08-13T11:49:30.555Z,7.75
2018-08-13T11:50:03.595Z,8.43
2018-08-13T11:50:36.646Z,7.28
2018-08-13T11:51:09.655Z,10.80
2018-08-13T11:51:42.760Z,8.35
2018-08-13T11:52:15.785Z,9.48
2018-08-13T11:52:48.816Z,9.38
2018-08-13T11:53:22.617Z,8.40
2018-08-13T11:53:56.419Z,10.50
2018-08-13T11:54:29.468Z,10.00
2018-08-13T11:55:02.518Z,9.40
2018-08-13T11:55:36.314Z,8.27
2018-08-13T11:56:09.596Z,8.40
2018-08-13T11:56:42.663Z,7.30
2018-08-13T11:57:15.712Z,8.45
2018-08-13T11:57:48.748Z,8.68
2018-08-13T11:58:21.940Z,9.35
2018-08-13T11:58:55.728Z,9.35
2018-08-13T11:59:28.767Z,7.97
2018-08-13T12:00:01.816Z,9.38
2018-08-13T12:00:34.848Z,7.95
2018-08-13T12:01:08.001Z,8.70
2018-08-13T12:01:40.964Z,9.60
2018-08-13T12:02:14.001Z,9.35
2018-08-13T12:02:47.040Z,8.55
2018-08-13T12:03:20.852Z,8.63
2018-08-13T12:03:53.896Z,8.90
2018-08-13T12:04:28.435Z,9.38
2018-08-13T12:05:01.508Z,8.77
2018-08-13T12:05:34.539Z,8.30
2018-08-13T12:06:07.580Z,9.85
2018-08-13T12:06:40.647Z,8.18
2018-08-13T12:07:13.672Z,8.13
2018-08-13T12:07:46.711Z,7.60
2018-08-13T12:08:19.769Z,9.35
2018-08-13T12:08:53.560Z,7.12
2018-08-13T12:09:26.583Z,7.78
2018-08-13T12:09:59.629Z,8.10
2018-08-13T12:10:32.693Z,7.72
2018-08-13T12:11:05.729Z,8.35
2018-08-13T12:11:39.543Z,8.18
2018-08-13T12:12:12.595Z,8.45
2018-08-13T12:12:45.619Z,7.20
2018-08-13T12:13:18.664Z,8.07
2018-08-13T12:13:52.447Z,7.95
2018-08-13T12:14:26.257Z,7.55
2018-08-13T12:14:59.327Z,7.95
2018-08-13T12:15:32.395Z,10.30
2018-08-13T12:16:06.205Z,8.93
2018-08-13T12:16:39.255Z,7.25
2018-08-13T12:17:12.306Z,9.23
2018-08-13T12:17:46.099Z,9.55
2018-08-13T12:18:19.136Z,8.65
2018-08-13T12:18:53.141Z,8.45
2018-08-13T12:19:27.023Z,7.90
2018-08-13T12:20:00.800Z,8.27
2018-08-13T12:20:33.831Z,7.97
2018-08-13T12:21:06.864Z,9.55
2018-08-13T12:21:39.916Z,7.07
2018-08-13T12:22:12.964Z,9.85
2018-08-13T12:22:46.020Z,7.87
2018-08-13T12:23:19.207Z,8.32
2018-08-13T12:23:52.249Z,9.68
2018-08-13T12:24:25.331Z,7.90
2018-08-13T12:24:58.369Z,9.55
2018-08-13T12:25:31.422Z,9.90
2018-08-13T12:26:04.435Z,6.57
2018-08-13T12:26:37.528Z,10.02
2018-08-13T12:27:10.575Z,6.37